createdAt,value
2022-07-25T00:01:16.572Z,4.30
2022-07-25T00:04:09.381Z,4.80
2022-07-25T00:06:57.266Z,4.95
2022-07-25T00:09:42.786Z,4.65
2022-07-25T00:12:28.330Z,5.50
2022-07-25T00:15:13.808Z,4.90
2022-07-25T00:17:58.941Z,4.57
2022-07-25T00:20:44.507Z,6.50
2022-07-25T00:23:29.940Z,4.95
2022-07-25T00:26:17.050Z,4.55
2022-07-25T00:29:02.461Z,3.65
2022-07-25T00:31:48.158Z,3.40
2022-07-25T00:34:33.521Z,3.45
2022-07-25T00:37:18.749Z,3.58
2022-07-25T00:40:04.520Z,3.40
2022-07-25T00:42:49.981Z,3.28
2022-07-25T00:45:35.351Z,3.60
2022-07-25T00:48:20.941Z,3.83
2022-07-25T00:51:07.073Z,3.80
2022-07-25T00:53:52.453Z,3.50
2022-07-25T00:56:38.435Z,3.60
2022-07-25T00:59:23.762Z,3.63
2022-07-25T01:02:09.112Z,3.50
2022-07-25T01:04:54.949Z,3.55
2022-07-25T01:07:41.038Z,3.72
2022-07-25T01:10:26.772Z,3.95
2022-07-25T01:13:12.595Z,3.67
2022-07-25T01:15:58.392Z,4.43
2022-07-25T01:18:44.542Z,4.25
2022-07-25T01:21:30.326Z,3.10
2022-07-25T01:24:15.388Z,4.63
2022-07-25T01:27:00.885Z,3.72
2022-07-25T01:29:46.240Z,3.08
2022-07-25T01:32:31.713Z,4.32
2022-07-25T01:35:17.233Z,4.20
2022-07-25T01:38:02.623Z,4.45
2022-07-25T01:40:48.030Z,3.90
2022-07-25T01:43:33.840Z,3.85
2022-07-25T01:46:19.246Z,3.67
2022-07-25T01:49:04.950Z,4.13
2022-07-25T01:51:50.536Z,3.78
2022-07-25T01:54:36.048Z,3.50
2022-07-25T01:57:21.558Z,3.60
2022-07-25T02:00:13.541Z,3.85
2022-07-25T02:03:17.338Z,3.75
2022-07-25T02:06:06.330Z,3.35
2022-07-25T02:08:51.802Z,3.70
2022-07-25T02:11:37.506Z,3.00
2022-07-25T02:14:23.121Z,3.50
2022-07-25T02:17:08.647Z,4.07
2022-07-25T02:19:54.029Z,3.75
2022-07-25T02:22:39.310Z,3.33
2022-07-25T02:25:24.555Z,3.22
2022-07-25T02:28:10.694Z,3.55
2022-07-25T02:30:56.353Z,4.35
2022-07-25T02:33:41.906Z,3.40
2022-07-25T02:36:27.105Z,3.50
2022-07-25T02:39:12.641Z,3.35
2022-07-25T02:41:57.897Z,4.15
2022-07-25T02:44:43.561Z,4.38
2022-07-25T02:47:28.644Z,3.60
2022-07-25T02:50:14.603Z,4.53
2022-07-25T02:53:00.553Z,3.72
2022-07-25T02:55:46.240Z,3.30
2022-07-25T02:58:31.541Z,3.63
2022-07-25T03:01:17.218Z,4.07
2022-07-25T03:04:02.631Z,4.22
2022-07-25T03:06:47.837Z,4.10
2022-07-25T03:09:33.327Z,4.03
2022-07-25T03:12:18.745Z,4.20
2022-07-25T03:15:06.184Z,4.53
2022-07-25T03:17:51.612Z,4.20
2022-07-25T03:20:36.724Z,4.32
2022-07-25T03:23:22.263Z,4.80
2022-07-25T03:26:07.811Z,4.40
2022-07-25T03:28:53.270Z,4.22
2022-07-25T03:31:38.732Z,4.38
2022-07-25T03:34:24.053Z,4.40
2022-07-25T03:37:09.603Z,3.58
2022-07-25T03:39:54.957Z,4.20
2022-07-25T03:42:40.458Z,4.05
2022-07-25T03:45:25.846Z,3.78
2022-07-25T03:48:11.238Z,4.07
2022-07-25T03:50:57.279Z,4.30
2022-07-25T03:54:01.042Z,3.40
2022-07-25T03:56:50.180Z,3.60
2022-07-25T03:59:35.643Z,3.92
2022-07-25T04:02:21.002Z,3.80
2022-07-25T04:05:07.461Z,4.28
2022-07-25T04:07:52.817Z,3.88
2022-07-25T04:10:38.185Z,4.47
2022-07-25T04:13:23.568Z,4.55
2022-07-25T04:16:14.576Z,4.53
2022-07-25T04:19:05.208Z,4.55
2022-07-25T04:21:51.759Z,3.45
2022-07-25T04:24:37.480Z,4.28
2022-07-25T04:27:22.578Z,3.72
2022-07-25T04:30:08.609Z,3.60
2022-07-25T04:32:53.996Z,3.80
2022-07-25T04:35:39.813Z,3.40
2022-07-25T04:38:24.981Z,3.30
2022-07-25T04:41:10.309Z,3.53
2022-07-25T04:43:55.632Z,3.42
2022-07-25T04:46:41.344Z,5.55
2022-07-25T04:49:26.762Z,3.40
2022-07-25T04:52:12.232Z,3.28
2022-07-25T04:54:57.572Z,3.50
2022-07-25T04:57:43.101Z,3.47
2022-07-25T05:00:28.687Z,3.50
2022-07-25T05:03:13.890Z,3.40
2022-07-25T05:05:59.440Z,3.78
2022-07-25T05:08:44.900Z,3.67
2022-07-25T05:11:30.254Z,3.63
2022-07-25T05:14:15.844Z,4.55
2022-07-25T05:17:01.878Z,3.85
2022-07-25T05:19:47.488Z,4.43
2022-07-25T05:22:32.928Z,3.88
2022-07-25T05:25:18.801Z,4.25
2022-07-25T05:28:04.095Z,3.25
2022-07-25T05:30:49.537Z,4.90
2022-07-25T05:33:35.165Z,3.55
2022-07-25T05:36:20.377Z,3.58
2022-07-25T05:39:05.907Z,2.83
2022-07-25T05:41:51.465Z,3.20
2022-07-25T05:44:36.720Z,2.95
2022-07-25T05:47:22.151Z,4.07
2022-07-25T05:50:07.918Z,4.60
2022-07-25T05:52:53.238Z,3.08
2022-07-25T05:55:40.709Z,5.20
2022-07-25T05:58:29.935Z,3.33
2022-07-25T06:01:16.572Z,5.72
2022-07-25T06:04:02.306Z,4.57
2022-07-25T06:06:51.260Z,3.00
2022-07-25T06:09:36.235Z,3.00
2022-07-25T06:12:21.853Z,2.55
2022-07-25T06:15:11.007Z,2.00
2022-07-25T06:18:05.204Z,2.78
2022-07-25T06:20:50.763Z,2.30
2022-07-25T06:23:36.245Z,2.38
2022-07-25T06:26:21.741Z,4.80
2022-07-25T06:29:07.118Z,3.22
2022-07-25T06:31:52.674Z,1.83
2022-07-25T06:34:38.492Z,2.00
2022-07-25T06:37:23.941Z,3.40
2022-07-25T06:40:09.994Z,2.55
2022-07-25T06:42:55.679Z,2.15
2022-07-25T06:45:42.913Z,2.80
2022-07-25T06:48:28.260Z,2.20
2022-07-25T06:51:13.543Z,3.35
2022-07-25T06:53:59.330Z,3.03
2022-07-25T06:56:44.829Z,2.13
2022-07-25T06:59:30.462Z,2.17
2022-07-25T07:02:15.905Z,3.50
2022-07-25T07:05:01.242Z,3.30
2022-07-25T07:07:48.069Z,2.90
2022-07-25T07:10:33.564Z,2.45
2022-07-25T07:13:23.748Z,4.03
2022-07-25T07:16:09.781Z,3.40
2022-07-25T07:18:55.153Z,3.53
2022-07-25T07:21:41.643Z,4.35
2022-07-25T07:24:27.373Z,2.53
2022-07-25T07:27:12.839Z,5.47
2022-07-25T07:29:58.270Z,3.22
2022-07-25T07:32:44.517Z,2.53
2022-07-25T07:35:29.985Z,3.42
2022-07-25T07:38:21.535Z,3.63
2022-07-25T07:41:06.787Z,3.08
2022-07-25T07:43:52.167Z,3.13
2022-07-25T07:46:37.747Z,3.70
2022-07-25T07:49:23.003Z,4.25
2022-07-25T07:52:09.666Z,3.38
2022-07-25T07:55:13.514Z,5.25
2022-07-25T07:58:01.679Z,4.65
2022-07-25T08:00:49.494Z,4.90
2022-07-25T08:03:34.850Z,4.00
2022-07-25T08:06:20.325Z,3.75
2022-07-25T08:09:05.850Z,3.80
2022-07-25T08:11:52.905Z,4.18
2022-07-25T08:14:37.871Z,5.32
2022-07-25T08:17:28.196Z,3.50
2022-07-25T08:20:36.429Z,4.53
2022-07-25T08:23:20.198Z,4.68
2022-07-25T08:26:06.457Z,4.13
2022-07-25T08:29:17.063Z,3.55
2022-07-25T08:31:58.143Z,4.47
2022-07-25T08:34:43.591Z,3.30
2022-07-25T08:37:29.881Z,3.08
2022-07-25T08:40:16.645Z,3.55
2022-07-25T08:43:02.073Z,3.40
2022-07-25T08:45:49.395Z,3.83
2022-07-25T08:48:36.000Z,2.85
2022-07-25T08:51:21.597Z,2.75
2022-07-25T08:54:07.786Z,3.25
2022-07-25T08:56:53.619Z,4.30
2022-07-25T08:59:39.071Z,4.05
2022-07-25T09:02:27.294Z,3.05
2022-07-25T09:05:13.074Z,2.60
2022-07-25T09:08:07.911Z,4.20
2022-07-25T09:10:53.896Z,6.43
2022-07-25T09:13:40.512Z,4.05
2022-07-25T09:16:30.515Z,4.50
2022-07-25T09:19:17.122Z,5.47
2022-07-25T09:22:06.317Z,3.78
2022-07-25T09:24:52.473Z,3.40
2022-07-25T09:27:37.873Z,9.27
2022-07-25T09:30:24.049Z,4.45
2022-07-25T09:33:09.304Z,3.88
2022-07-25T09:35:55.807Z,4.47
2022-07-25T09:38:51.986Z,5.28
2022-07-25T09:41:39.950Z,5.78
2022-07-25T09:44:30.268Z,5.10
2022-07-25T09:47:16.439Z,3.05
2022-07-25T09:50:02.184Z,4.30
2022-07-25T09:52:48.086Z,5.15
2022-07-25T09:55:33.385Z,4.40
2022-07-25T09:58:19.498Z,5.43
2022-07-25T10:01:07.098Z,3.78
2022-07-25T10:04:05.853Z,3.97
2022-07-25T10:07:04.101Z,5.20
2022-07-25T10:09:54.355Z,3.63
2022-07-25T10:12:39.510Z,4.72
2022-07-25T10:15:25.150Z,5.50
2022-07-25T10:18:10.819Z,7.18
2022-07-25T10:21:25.074Z,6.05
2022-07-25T10:24:12.353Z,4.97
2022-07-25T10:27:05.500Z,3.80
2022-07-25T10:29:54.150Z,5.78
2022-07-25T10:32:50.405Z,6.25
2022-07-25T10:35:36.226Z,7.45
2022-07-25T10:38:25.223Z,5.95
2022-07-25T10:41:12.632Z,6.05
2022-07-25T10:44:02.328Z,7.85
2022-07-25T10:46:48.514Z,5.28
2022-07-25T10:49:50.151Z,4.57
2022-07-25T10:52:42.478Z,5.47
2022-07-25T10:55:29.065Z,5.35
2022-07-25T10:58:18.438Z,5.70
2022-07-25T11:01:05.403Z,4.35
2022-07-25T11:03:53.266Z,6.95
2022-07-25T11:06:43.005Z,5.05
2022-07-25T11:09:28.847Z,4.15
2022-07-25T11:12:15.927Z,7.85
2022-07-25T11:15:04.050Z,4.47
2022-07-25T11:17:53.456Z,9.68
2022-07-25T11:20:38.867Z,7.68
2022-07-25T11:23:24.382Z,4.97
2022-07-25T11:26:11.911Z,5.25
2022-07-25T11:28:57.232Z,9.82
2022-07-25T11:31:43.391Z,5.45
2022-07-25T11:34:32.513Z,6.22
2022-07-25T11:37:20.336Z,5.38
2022-07-25T11:40:06.822Z,8.15
2022-07-25T11:42:54.395Z,8.35
2022-07-25T11:45:41.000Z,8.05
2022-07-25T11:48:32.396Z,7.15
2022-07-25T11:51:19.502Z,10.77
2022-07-25T11:54:10.532Z,8.00
2022-07-25T11:56:56.325Z,6.57
2022-07-25T11:59:42.575Z,3.90
2022-07-25T12:02:33.538Z,6.28
2022-07-25T12:05:23.085Z,6.53
2022-07-25T12:08:12.294Z,6.43
2022-07-25T12:10:57.902Z,6.65
2022-07-25T12:13:43.349Z,5.15
2022-07-25T12:16:28.722Z,4.75
2022-07-25T12:19:21.766Z,6.03
2022-07-25T12:22:07.211Z,7.03
2022-07-25T12:24:52.669Z,5.65
2022-07-25T12:27:38.474Z,10.02
2022-07-25T12:30:23.606Z,5.88
2022-07-25T12:33:08.928Z,7.65
2022-07-25T12:35:54.435Z,8.35
2022-07-25T12:38:40.000Z,4.57
2022-07-25T12:41:25.944Z,7.00
2022-07-25T12:44:10.914Z,11.25
2022-07-25T12:46:56.609Z,15.40
2022-07-25T12:49:41.989Z,10.05
2022-07-25T12:52:27.750Z,7.97
2022-07-25T12:55:15.604Z,8.95
2022-07-25T12:58:01.130Z,11.25
2022-07-25T13:00:46.665Z,9.27
2022-07-25T13:03:32.593Z,7.82
2022-07-25T13:06:20.681Z,10.55
2022-07-25T13:09:06.531Z,6.35
2022-07-25T13:11:52.494Z,5.57
2022-07-25T13:14:38.061Z,11.48
2022-07-25T13:17:27.145Z,10.18
2022-07-25T13:20:13.064Z,7.25
2022-07-25T13:22:58.413Z,10.15
2022-07-25T13:25:44.064Z,6.00
2022-07-25T13:28:29.692Z,12.98
2022-07-25T13:31:15.411Z,11.32
2022-07-25T13:34:00.757Z,6.85
2022-07-25T13:36:46.895Z,4.88
2022-07-25T13:39:32.472Z,5.18
2022-07-25T13:42:18.486Z,10.50
2022-07-25T13:45:03.963Z,7.97
2022-07-25T13:48:05.996Z,5.65
2022-07-25T13:50:55.586Z,4.88
2022-07-25T13:53:40.965Z,3.83
2022-07-25T13:56:26.245Z,4.47
2022-07-25T13:59:17.234Z,6.72
2022-07-25T14:02:06.378Z,10.73
2022-07-25T14:04:52.136Z,7.10
2022-07-25T14:07:37.684Z,7.93
2022-07-25T14:10:23.344Z,6.95
2022-07-25T14:13:09.092Z,5.78
2022-07-25T14:15:55.660Z,4.97
2022-07-25T14:18:41.016Z,8.77
2022-07-25T14:21:26.595Z,7.35
2022-07-25T14:24:12.082Z,5.55
2022-07-25T14:26:58.840Z,5.07
2022-07-25T14:29:44.506Z,4.85
2022-07-25T14:32:29.948Z,6.95
2022-07-25T14:35:15.436Z,6.88
2022-07-25T14:38:01.914Z,4.28
2022-07-25T14:40:47.913Z,5.65
2022-07-25T14:43:33.595Z,4.53
2022-07-25T14:46:19.027Z,3.45
2022-07-25T14:49:05.031Z,7.97
2022-07-25T14:51:50.602Z,5.40
2022-07-25T14:54:36.138Z,4.13
2022-07-25T14:57:21.550Z,5.57
2022-07-25T15:00:08.069Z,5.03
2022-07-25T15:02:53.263Z,5.07
2022-07-25T15:05:39.127Z,5.93
2022-07-25T15:08:24.376Z,6.82
2022-07-25T15:11:10.142Z,3.58
2022-07-25T15:13:55.718Z,4.72
2022-07-25T15:16:42.482Z,5.78
2022-07-25T15:19:28.381Z,5.97
2022-07-25T15:22:14.207Z,3.72
2022-07-25T15:25:45.052Z,8.93
2022-07-25T15:28:05.362Z,10.45
2022-07-25T15:30:51.306Z,10.30
2022-07-25T15:33:36.848Z,16.65
2022-07-25T15:36:25.902Z,7.18
2022-07-25T15:39:14.471Z,14.25
2022-07-25T15:42:01.059Z,9.25
2022-07-25T15:44:46.689Z,8.00
2022-07-25T15:47:33.130Z,8.40
2022-07-25T15:50:19.261Z,8.75
2022-07-25T15:53:06.136Z,9.85
2022-07-25T15:55:52.035Z,7.80
2022-07-25T15:58:37.265Z,6.45
2022-07-25T16:01:22.997Z,7.53
2022-07-25T16:04:08.278Z,9.05
2022-07-25T16:06:53.725Z,5.88
2022-07-25T16:09:38.874Z,7.47
2022-07-25T16:12:28.777Z,6.18
2022-07-25T16:15:14.184Z,7.13
2022-07-25T16:18:02.656Z,7.00
2022-07-25T16:20:48.579Z,7.53
2022-07-25T16:23:39.004Z,6.40
2022-07-25T16:26:26.114Z,7.45
2022-07-25T16:29:12.352Z,6.63
2022-07-25T16:31:58.213Z,6.53
2022-07-25T16:34:43.818Z,5.45
2022-07-25T16:37:29.061Z,9.18
2022-07-25T16:40:15.111Z,9.23
2022-07-25T16:43:00.559Z,7.95
2022-07-25T16:45:46.281Z,10.98
2022-07-25T16:48:31.530Z,8.30
2022-07-25T16:51:17.058Z,8.60
2022-07-25T16:54:02.650Z,11.23
2022-07-25T16:56:52.903Z,7.47
2022-07-25T16:59:39.598Z,8.05
2022-07-25T17:02:29.457Z,10.82
2022-07-25T17:05:15.214Z,9.93
2022-07-25T17:08:00.824Z,9.10
2022-07-25T17:10:46.229Z,8.63
2022-07-25T17:13:31.913Z,7.05
2022-07-25T17:16:17.559Z,11.40
2022-07-25T17:19:04.076Z,9.25
2022-07-25T17:21:49.859Z,8.25
2022-07-25T17:24:35.866Z,9.93
2022-07-25T17:27:21.307Z,9.68
2022-07-25T17:30:07.334Z,8.05
2022-07-25T17:32:53.366Z,9.70
2022-07-25T17:35:39.004Z,8.90
2022-07-25T17:38:27.637Z,6.75
2022-07-25T17:41:14.784Z,8.00
2022-07-25T17:44:00.215Z,9.48
2022-07-25T17:46:45.806Z,10.50
2022-07-25T17:49:31.095Z,10.20
2022-07-25T17:52:17.724Z,6.50
2022-07-25T17:55:03.697Z,10.52
2022-07-25T17:57:53.281Z,7.88
2022-07-25T18:00:39.890Z,10.07
2022-07-25T18:03:26.525Z,7.88
2022-07-25T18:06:11.992Z,11.88
2022-07-25T18:08:57.876Z,11.30
2022-07-25T18:11:43.294Z,10.55
2022-07-25T18:14:29.237Z,7.80
2022-07-25T18:17:14.700Z,7.47
2022-07-25T18:20:00.499Z,9.20
2022-07-25T18:22:46.163Z,9.07
2022-07-25T18:25:31.579Z,9.15
2022-07-25T18:28:17.026Z,7.20
2022-07-25T18:31:02.662Z,7.38
2022-07-25T18:33:48.704Z,6.93
2022-07-25T18:36:34.609Z,10.77
2022-07-25T18:39:20.141Z,7.03
2022-07-25T18:42:06.193Z,12.25
2022-07-25T18:44:51.307Z,8.82
2022-07-25T18:47:36.809Z,10.35
2022-07-25T18:50:22.205Z,8.73
2022-07-25T18:53:07.659Z,7.75
2022-07-25T18:55:53.043Z,9.32
2022-07-25T18:58:38.639Z,9.00
2022-07-25T19:01:24.242Z,7.90
2022-07-25T19:04:11.082Z,10.00
2022-07-25T19:06:57.031Z,5.60
2022-07-25T19:09:42.389Z,7.25
2022-07-25T19:12:27.840Z,8.95
2022-07-25T19:15:13.201Z,8.80
2022-07-25T19:17:58.603Z,6.40
2022-07-25T19:20:45.013Z,10.60
2022-07-25T19:23:30.572Z,8.55
2022-07-25T19:26:15.925Z,6.80
2022-07-25T19:29:01.310Z,6.57
2022-07-25T19:31:47.335Z,7.05
2022-07-25T19:34:32.796Z,7.53
2022-07-25T19:37:18.759Z,5.47
2022-07-25T19:40:06.511Z,6.05
2022-07-25T19:42:52.175Z,7.45
2022-07-25T19:45:39.272Z,5.82
2022-07-25T19:48:25.154Z,9.13
2022-07-25T19:51:10.725Z,9.60
2022-07-25T19:53:57.171Z,9.93
2022-07-25T19:56:42.528Z,7.28
2022-07-25T19:59:28.182Z,9.90
2022-07-25T20:02:13.611Z,11.00
2022-07-25T20:04:59.510Z,7.88
2022-07-25T20:07:45.488Z,9.85
2022-07-25T20:10:30.976Z,8.60
2022-07-25T20:13:16.768Z,7.22
2022-07-25T20:16:03.889Z,5.82
2022-07-25T20:18:49.765Z,8.07
2022-07-25T20:21:40.086Z,8.48
2022-07-25T20:24:25.730Z,9.55
2022-07-25T20:27:11.447Z,9.32
2022-07-25T20:29:56.584Z,9.63
2022-07-25T20:32:42.330Z,10.75
2022-07-25T20:35:32.284Z,8.32
2022-07-25T20:38:19.318Z,10.13
2022-07-25T20:41:06.867Z,7.47
2022-07-25T20:43:53.248Z,10.85
2022-07-25T20:46:39.021Z,8.98
2022-07-25T20:49:24.749Z,10.73
2022-07-25T20:52:10.182Z,7.72
2022-07-25T20:54:55.933Z,6.93
2022-07-25T20:57:41.538Z,9.98
2022-07-25T21:00:28.898Z,13.55
2022-07-25T21:03:14.605Z,12.95
2022-07-25T21:06:01.442Z,9.48
2022-07-25T21:08:47.041Z,9.05
2022-07-25T21:11:32.348Z,11.02
2022-07-25T21:14:17.836Z,8.45
2022-07-25T21:17:03.573Z,9.68
2022-07-25T21:19:48.949Z,8.73
2022-07-25T21:22:34.826Z,8.68
2022-07-25T21:25:20.749Z,8.02
2022-07-25T21:28:06.036Z,10.32
2022-07-25T21:30:51.637Z,9.13
2022-07-25T21:33:37.649Z,12.13
2022-07-25T21:36:22.781Z,8.48
2022-07-25T21:39:08.758Z,8.57
2022-07-25T21:41:54.786Z,9.55
2022-07-25T21:44:43.061Z,9.27
2022-07-25T21:47:28.186Z,8.95
2022-07-25T21:50:32.122Z,10.65
2022-07-25T21:53:17.755Z,7.10
2022-07-25T21:56:03.340Z,10.00
2022-07-25T21:58:48.929Z,9.98
2022-07-25T22:01:34.610Z,9.50
2022-07-25T22:04:20.041Z,10.27
2022-07-25T22:07:05.558Z,8.25
2022-07-25T22:09:51.331Z,8.10
2022-07-25T22:12:37.153Z,11.25
2022-07-25T22:15:22.627Z,8.45
2022-07-25T22:18:08.151Z,8.38
2022-07-25T22:20:53.359Z,6.95
2022-07-25T22:23:38.992Z,7.82
2022-07-25T22:26:24.461Z,9.65
2022-07-25T22:29:10.730Z,10.65
2022-07-25T22:31:56.598Z,10.45
2022-07-25T22:34:42.079Z,11.90
2022-07-25T22:37:27.781Z,8.95
2022-07-25T22:40:18.229Z,13.02
2022-07-25T22:43:04.108Z,7.00
2022-07-25T22:45:51.634Z,7.50
2022-07-25T22:48:37.407Z,9.07
2022-07-25T22:51:23.476Z,13.38
2022-07-25T22:54:08.812Z,10.68
2022-07-25T22:56:54.703Z,9.23
2022-07-25T22:59:40.175Z,7.55
2022-07-25T23:02:26.014Z,8.80
2022-07-25T23:05:11.239Z,9.15
2022-07-25T23:07:56.720Z,9.10
2022-07-25T23:10:42.126Z,8.35
2022-07-25T23:13:27.524Z,7.97
2022-07-25T23:16:13.009Z,9.43
2022-07-25T23:18:58.506Z,9.07
2022-07-25T23:21:43.818Z,9.30
2022-07-25T23:24:29.932Z,11.02
2022-07-25T23:27:17.559Z,10.02
2022-07-25T23:30:07.571Z,9.38
2022-07-25T23:32:53.042Z,11.68
2022-07-25T23:35:38.535Z,7.07
2022-07-25T23:38:24.014Z,9.82
2022-07-25T23:41:09.384Z,8.45
2022-07-25T23:43:59.181Z,8.68
2022-07-25T23:46:45.940Z,8.43
2022-07-25T23:49:31.985Z,9.27
2022-07-25T23:52:17.506Z,7.18
2022-07-25T23:55:03.203Z,9.65
2022-07-25T23:57:48.778Z,7.65
